Wunstorf, Germany

9:47 AM CEST on September 05, 2015 (GMT +0200)
Wunstorf | | Change Station
CLOSE
Current Station
Personal Weather Station
Location: Hagenburg, NIEDERSACHSEN
Elevation: 148 ft
Nearby Weather Stations

Elev 148 ft 52.43 °N, 9.33 °E | Updated 46 minutes ago

Mostly Cloudy
Mostly Cloudy
55.8 °F
Feels Like 55.8 °F
N
11.1
Wind Variable Wind from WSW
Gusts 19.0 mph

Today
High -- | Low -- °F
--% Chance of Precip.
Yesterday
High -- | Low -- °F
Precip. -- in
6:39 AM 8:01 PM
Waning Gibbous, 51% visible
Pressure 29.83 in
Visibility 6.2 miles
Clouds Mostly Cloudy 1300 ft
Dew Point 54 °F
Humidity 93%
Rainfall 0.07 in
Snow Depth Not available.
UV 0.6 out of 12
Pollen Not available.
Air Quality Not available.
Flu Activity Not available.
METAR EDDV 050720Z 25011KT 220V290 9999 BKN013 14/12 Q1010 BECMG SCT013
Pressure 29.83 in
Visibility 6.2 miles
Clouds Mostly Cloudy 1300 ft
Dew Point 54 °F
Humidity 93%
Rainfall 0.07 in
Snow Depth Not available.
UV 0.6 out of 12
Pollen Not available.
Air Quality Not available.
Flu Activity Not available.
METAR EDDV 050720Z 25011KT 220V290 9999 BKN013 14/12 Q1010 BECMG SCT013

10-Day Weather Forecast

×

Almanac

Astronomy

Sep. 05, 2015 Rise Set
Actual Time
Civil Twilight
Nautical Twilight
Astronomical Twilight
Moon
Length of Visible Light
Length of Day
Tomorrow will be .
, % of the Moon is Illuminated

Today's Extremes

Country Highs Country Lows

Community

WunderPhotos

Upload Photos

1,852,437 photos uploaded!

WunderBlogs® & News

Nearby

Air Quality

  Air Quality AQ Index Pollutant
Not available.

Snow Depth

Station Depth Elevation

Earthquake Activity

City Distance Mag. Time & Date
Minimum magnitude displayed is 2.5.

Coastal Water Temperatures

Place Temperature

Stations

Nearby Weather Stations

Station Location Temp. Windchill Dew Point Humidity Wind Precip. Elev Updated Type